sensor_id;sensor_type;location;lat;lon;timestamp;P1;durP1;ratioP1;P2;durP2;ratioP2
52354;SDS011;38286;51.156;17.038;2023-08-30T00:00:55;5.43;;;3.40;;
52354;SDS011;38286;51.156;17.038;2023-08-30T00:03:33;6.85;;;3.40;;
52354;SDS011;38286;51.156;17.038;2023-08-30T00:06:02;5.88;;;3.45;;
52354;SDS011;38286;51.156;17.038;2023-08-30T00:08:30;5.20;;;3.30;;
52354;SDS011;38286;51.156;17.038;2023-08-30T00:10:56;5.75;;;3.70;;
52354;SDS011;38286;51.156;17.038;2023-08-30T00:13:28;6.63;;;3.95;;
52354;SDS011;38286;51.156;17.038;2023-08-30T00:15:56;7.43;;;3.90;;
52354;SDS011;38286;51.156;17.038;2023-08-30T00:18:21;5.03;;;2.83;;
52354;SDS011;38286;51.156;17.038;2023-08-30T00:20:48;5.53;;;2.90;;
52354;SDS011;38286;51.156;17.038;2023-08-30T00:23:13;4.47;;;2.78;;
52354;SDS011;38286;51.156;17.038;2023-08-30T00:25:40;2.95;;;2.40;;
52354;SDS011;38286;51.156;17.038;2023-08-30T00:28:06;3.55;;;2.55;;
52354;SDS011;38286;51.156;17.038;2023-08-30T00:30:32;3.70;;;2.38;;
52354;SDS011;38286;51.156;17.038;2023-08-30T00:32:58;3.90;;;2.10;;
52354;SDS011;38286;51.156;17.038;2023-08-30T00:35:24;3.45;;;1.92;;
52354;SDS011;38286;51.156;17.038;2023-08-30T00:37:50;3.10;;;1.98;;
52354;SDS011;38286;51.156;17.038;2023-08-30T00:40:16;2.72;;;2.08;;
52354;SDS011;38286;51.156;17.038;2023-08-30T00:42:42;2.60;;;1.98;;
52354;SDS011;38286;51.156;17.038;2023-08-30T00:45:08;2.03;;;1.65;;
52354;SDS011;38286;51.156;17.038;2023-08-30T00:47:34;3.08;;;2.00;;
52354;SDS011;38286;51.156;17.038;2023-08-30T00:50:01;2.10;;;1.60;;
52354;SDS011;38286;51.156;17.038;2023-08-30T00:52:27;3.53;;;2.00;;
52354;SDS011;38286;51.156;17.038;2023-08-30T00:54:54;3.65;;;2.03;;
52354;SDS011;38286;51.156;17.038;2023-08-30T00:57:19;4.10;;;2.13;;
52354;SDS011;38286;51.156;17.038;2023-08-30T00:59:46;4.82;;;2.03;;
52354;SDS011;38286;51.156;17.038;2023-08-30T01:02:11;3.88;;;2.78;;
52354;SDS011;38286;51.156;17.038;2023-08-30T01:04:37;5.72;;;2.58;;
52354;SDS011;38286;51.156;17.038;2023-08-30T01:07:03;4.05;;;2.55;;
52354;SDS011;38286;51.156;17.038;2023-08-30T01:09:29;3.13;;;2.30;;
52354;SDS011;38286;51.156;17.038;2023-08-30T01:12:10;3.22;;;1.92;;
52354;SDS011;38286;51.156;17.038;2023-08-30T01:17:41;4.03;;;2.40;;
52354;SDS011;38286;51.156;17.038;2023-08-30T01:20:10;4.80;;;2.65;;
52354;SDS011;38286;51.156;17.038;2023-08-30T01:25:33;3.20;;;2.40;;
52354;SDS011;38286;51.156;17.038;2023-08-30T01:28:19;3.75;;;2.35;;
52354;SDS011;38286;51.156;17.038;2023-08-30T01:30:46;5.22;;;2.20;;
52354;SDS011;38286;51.156;17.038;2023-08-30T01:33:13;4.90;;;2.83;;
52354;SDS011;38286;51.156;17.038;2023-08-30T01:35:41;4.15;;;2.30;;
52354;SDS011;38286;51.156;17.038;2023-08-30T01:38:07;3.72;;;2.55;;
52354;SDS011;38286;51.156;17.038;2023-08-30T01:40:39;5.95;;;2.50;;
52354;SDS011;38286;51.156;17.038;2023-08-30T01:43:06;4.82;;;2.70;;
52354;SDS011;38286;51.156;17.038;2023-08-30T01:45:42;4.60;;;2.80;;
52354;SDS011;38286;51.156;17.038;2023-08-30T01:48:09;5.75;;;2.80;;
52354;SDS011;38286;51.156;17.038;2023-08-30T01:50:38;3.33;;;2.50;;
52354;SDS011;38286;51.156;17.038;2023-08-30T01:53:05;3.67;;;2.60;;
52354;SDS011;38286;51.156;17.038;2023-08-30T01:55:31;4.43;;;2.42;;
52354;SDS011;38286;51.156;17.038;2023-08-30T01:57:57;5.93;;;2.40;;
52354;SDS011;38286;51.156;17.038;2023-08-30T02:00:24;2.10;;;1.77;;
52354;SDS011;38286;51.156;17.038;2023-08-30T02:02:50;3.97;;;1.80;;
52354;SDS011;38286;51.156;17.038;2023-08-30T02:05:16;2.63;;;1.77;;
52354;SDS011;38286;51.156;17.038;2023-08-30T02:10:12;2.63;;;1.83;;
52354;SDS011;38286;51.156;17.038;2023-08-30T02:12:48;2.05;;;1.85;;
52354;SDS011;38286;51.156;17.038;2023-08-30T02:15:15;2.08;;;1.83;;
52354;SDS011;38286;51.156;17.038;2023-08-30T02:17:43;2.67;;;1.95;;
52354;SDS011;38286;51.156;17.038;2023-08-30T02:20:09;3.00;;;2.05;;
52354;SDS011;38286;51.156;17.038;2023-08-30T02:22:35;2.22;;;1.80;;
52354;SDS011;38286;51.156;17.038;2023-08-30T02:25:02;2.35;;;1.70;;
52354;SDS011;38286;51.156;17.038;2023-08-30T02:27:32;4.20;;;2.20;;
52354;SDS011;38286;51.156;17.038;2023-08-30T02:29:58;5.63;;;2.20;;
52354;SDS011;38286;51.156;17.038;2023-08-30T02:32:24;2.40;;;1.75;;
52354;SDS011;38286;51.156;17.038;2023-08-30T02:34:50;1.85;;;1.60;;
52354;SDS011;38286;51.156;17.038;2023-08-30T02:37:18;4.10;;;2.30;;
52354;SDS011;38286;51.156;17.038;2023-08-30T02:39:44;2.10;;;1.90;;
52354;SDS011;38286;51.156;17.038;2023-08-30T02:42:10;2.15;;;1.90;;
52354;SDS011;38286;51.156;17.038;2023-08-30T02:44:36;1.85;;;1.67;;
52354;SDS011;38286;51.156;17.038;2023-08-30T02:47:02;2.95;;;2.00;;
52354;SDS011;38286;51.156;17.038;2023-08-30T02:49:29;2.42;;;2.13;;
52354;SDS011;38286;51.156;17.038;2023-08-30T02:51:55;2.90;;;1.70;;
52354;SDS011;38286;51.156;17.038;2023-08-30T02:54:21;4.00;;;1.73;;
52354;SDS011;38286;51.156;17.038;2023-08-30T02:56:48;4.00;;;2.10;;
52354;SDS011;38286;51.156;17.038;2023-08-30T02:59:14;2.47;;;1.90;;
52354;SDS011;38286;51.156;17.038;2023-08-30T03:01:40;2.80;;;2.00;;
52354;SDS011;38286;51.156;17.038;2023-08-30T03:04:07;2.22;;;1.58;;
52354;SDS011;38286;51.156;17.038;2023-08-30T03:06:33;2.35;;;1.80;;
52354;SDS011;38286;51.156;17.038;2023-08-30T03:09:00;3.10;;;1.90;;
52354;SDS011;38286;51.156;17.038;2023-08-30T03:11:26;1.98;;;1.52;;
52354;SDS011;38286;51.156;17.038;2023-08-30T03:13:53;2.75;;;1.90;;
52354;SDS011;38286;51.156;17.038;2023-08-30T03:16:19;2.72;;;2.00;;
52354;SDS011;38286;51.156;17.038;2023-08-30T03:18:45;3.03;;;2.10;;
52354;SDS011;38286;51.156;17.038;2023-08-30T03:21:11;3.88;;;2.30;;
52354;SDS011;38286;51.156;17.038;2023-08-30T03:23:38;2.30;;;2.10;;
52354;SDS011;38286;51.156;17.038;2023-08-30T03:26:08;5.25;;;2.75;;
52354;SDS011;38286;51.156;17.038;2023-08-30T03:28:35;2.83;;;1.98;;
52354;SDS011;38286;51.156;17.038;2023-08-30T03:31:01;2.97;;;2.30;;
52354;SDS011;38286;51.156;17.038;2023-08-30T03:33:27;3.08;;;2.17;;
52354;SDS011;38286;51.156;17.038;2023-08-30T03:35:53;3.95;;;2.40;;
52354;SDS011;38286;51.156;17.038;2023-08-30T03:38:19;4.45;;;2.45;;
52354;SDS011;38286;51.156;17.038;2023-08-30T03:40:45;3.45;;;2.60;;
52354;SDS011;38286;51.156;17.038;2023-08-30T03:43:11;5.90;;;2.60;;
52354;SDS011;38286;51.156;17.038;2023-08-30T03:45:37;2.67;;;1.90;;
52354;SDS011;38286;51.156;17.038;2023-08-30T03:48:03;2.90;;;1.98;;
52354;SDS011;38286;51.156;17.038;2023-08-30T03:50:29;3.22;;;1.98;;
52354;SDS011;38286;51.156;17.038;2023-08-30T03:52:56;5.18;;;2.00;;
52354;SDS011;38286;51.156;17.038;2023-08-30T03:55:21;2.63;;;1.98;;
52354;SDS011;38286;51.156;17.038;2023-08-30T03:57:48;3.75;;;2.10;;
52354;SDS011;38286;51.156;17.038;2023-08-30T04:00:14;6.82;;;2.33;;
52354;SDS011;38286;51.156;17.038;2023-08-30T04:02:40;3.33;;;2.30;;
52354;SDS011;38286;51.156;17.038;2023-08-30T04:05:06;4.45;;;2.33;;
52354;SDS011;38286;51.156;17.038;2023-08-30T04:07:35;4.82;;;2.75;;
52354;SDS011;38286;51.156;17.038;2023-08-30T04:10:02;5.65;;;2.50;;
52354;SDS011;38286;51.156;17.038;2023-08-30T04:12:31;5.72;;;2.80;;
52354;SDS011;38286;51.156;17.038;2023-08-30T04:14:57;5.25;;;2.55;;
52354;SDS011;38286;51.156;17.038;2023-08-30T04:17:23;5.60;;;2.70;;
52354;SDS011;38286;51.156;17.038;2023-08-30T04:19:52;4.95;;;2.22;;
52354;SDS011;38286;51.156;17.038;2023-08-30T04:22:18;5.10;;;2.42;;
52354;SDS011;38286;51.156;17.038;2023-08-30T04:24:45;4.43;;;2.42;;
52354;SDS011;38286;51.156;17.038;2023-08-30T04:27:12;5.03;;;2.70;;
52354;SDS011;38286;51.156;17.038;2023-08-30T04:29:37;5.03;;;2.40;;
52354;SDS011;38286;51.156;17.038;2023-08-30T04:32:04;5.65;;;2.70;;
52354;SDS011;38286;51.156;17.038;2023-08-30T04:34:30;8.43;;;3.15;;
52354;SDS011;38286;51.156;17.038;2023-08-30T04:36:56;3.72;;;2.20;;
52354;SDS011;38286;51.156;17.038;2023-08-30T04:39:22;6.22;;;2.67;;
52354;SDS011;38286;51.156;17.038;2023-08-30T04:41:49;4.15;;;2.38;;
52354;SDS011;38286;51.156;17.038;2023-08-30T04:44:14;3.45;;;2.42;;
52354;SDS011;38286;51.156;17.038;2023-08-30T04:46:41;4.30;;;2.55;;
52354;SDS011;38286;51.156;17.038;2023-08-30T04:49:07;3.10;;;2.40;;
52354;SDS011;38286;51.156;17.038;2023-08-30T04:51:33;4.30;;;2.42;;
52354;SDS011;38286;51.156;17.038;2023-08-30T04:53:59;4.43;;;2.55;;
52354;SDS011;38286;51.156;17.038;2023-08-30T04:56:25;4.70;;;2.42;;
52354;SDS011;38286;51.156;17.038;2023-08-30T04:58:51;3.35;;;1.92;;
52354;SDS011;38286;51.156;17.038;2023-08-30T05:01:17;4.30;;;2.55;;
52354;SDS011;38286;51.156;17.038;2023-08-30T05:03:43;3.70;;;2.38;;
52354;SDS011;38286;51.156;17.038;2023-08-30T05:06:09;3.78;;;2.60;;
52354;SDS011;38286;51.156;17.038;2023-08-30T05:08:37;3.72;;;2.13;;
52354;SDS011;38286;51.156;17.038;2023-08-30T05:11:03;2.53;;;1.67;;
52354;SDS011;38286;51.156;17.038;2023-08-30T05:13:29;3.50;;;1.73;;
52354;SDS011;38286;51.156;17.038;2023-08-30T05:15:55;3.50;;;2.05;;
52354;SDS011;38286;51.156;17.038;2023-08-30T05:18:21;4.50;;;1.80;;
52354;SDS011;38286;51.156;17.038;2023-08-30T05:20:47;3.33;;;1.83;;
52354;SDS011;38286;51.156;17.038;2023-08-30T05:23:13;1.88;;;1.50;;
52354;SDS011;38286;51.156;17.038;2023-08-30T05:25:39;2.33;;;1.70;;
52354;SDS011;38286;51.156;17.038;2023-08-30T05:28:05;2.75;;;1.50;;
52354;SDS011;38286;51.156;17.038;2023-08-30T05:30:31;3.35;;;1.90;;
52354;SDS011;38286;51.156;17.038;2023-08-30T05:32:57;1.60;;;1.50;;
52354;SDS011;38286;51.156;17.038;2023-08-30T05:35:23;2.28;;;1.83;;
52354;SDS011;38286;51.156;17.038;2023-08-30T05:37:49;4.65;;;1.83;;
52354;SDS011;38286;51.156;17.038;2023-08-30T05:40:16;1.92;;;1.60;;
52354;SDS011;38286;51.156;17.038;2023-08-30T05:42:43;1.92;;;1.73;;
52354;SDS011;38286;51.156;17.038;2023-08-30T05:45:10;3.80;;;1.70;;
52354;SDS011;38286;51.156;17.038;2023-08-30T05:47:36;1.80;;;1.40;;
52354;SDS011;38286;51.156;17.038;2023-08-30T05:50:02;2.30;;;1.60;;
52354;SDS011;38286;51.156;17.038;2023-08-30T05:52:29;2.17;;;1.30;;
52354;SDS011;38286;51.156;17.038;2023-08-30T05:54:55;3.00;;;1.50;;
52354;SDS011;38286;51.156;17.038;2023-08-30T05:57:21;1.85;;;1.65;;
52354;SDS011;38286;51.156;17.038;2023-08-30T05:59:47;1.50;;;1.40;;
52354;SDS011;38286;51.156;17.038;2023-08-30T06:02:13;1.90;;;1.25;;
52354;SDS011;38286;51.156;17.038;2023-08-30T06:04:39;1.50;;;1.30;;
52354;SDS011;38286;51.156;17.038;2023-08-30T06:07:06;1.55;;;1.45;;
52354;SDS011;38286;51.156;17.038;2023-08-30T06:09:32;1.40;;;1.30;;
52354;SDS011;38286;51.156;17.038;2023-08-30T06:11:58;1.35;;;1.20;;
52354;SDS011;38286;51.156;17.038;2023-08-30T06:14:24;2.10;;;1.30;;
52354;SDS011;38286;51.156;17.038;2023-08-30T06:16:50;2.50;;;1.10;;
52354;SDS011;38286;51.156;17.038;2023-08-30T06:19:16;4.57;;;1.33;;
52354;SDS011;38286;51.156;17.038;2023-08-30T06:21:41;1.38;;;1.02;;
52354;SDS011;38286;51.156;17.038;2023-08-30T06:24:08;1.17;;;0.95;;
52354;SDS011;38286;51.156;17.038;2023-08-30T06:26:33;0.68;;;0.68;;
52354;SDS011;38286;51.156;17.038;2023-08-30T06:29:00;0.70;;;0.70;;
52354;SDS011;38286;51.156;17.038;2023-08-30T06:31:25;0.82;;;0.80;;
52354;SDS011;38286;51.156;17.038;2023-08-30T06:33:53;1.73;;;0.82;;
52354;SDS011;38286;51.156;17.038;2023-08-30T06:36:19;1.52;;;0.85;;
52354;SDS011;38286;51.156;17.038;2023-08-30T06:38:48;0.80;;;0.80;;
52354;SDS011;38286;51.156;17.038;2023-08-30T06:41:14;1.15;;;0.70;;
52354;SDS011;38286;51.156;17.038;2023-08-30T06:43:40;0.88;;;0.88;;
52354;SDS011;38286;51.156;17.038;2023-08-30T06:46:06;0.73;;;0.73;;
52354;SDS011;38286;51.156;17.038;2023-08-30T06:48:32;1.30;;;0.95;;
52354;SDS011;38286;51.156;17.038;2023-08-30T06:50:58;0.80;;;0.80;;
52354;SDS011;38286;51.156;17.038;2023-08-30T06:53:26;0.82;;;0.82;;
52354;SDS011;38286;51.156;17.038;2023-08-30T06:55:58;1.10;;;0.80;;
52354;SDS011;38286;51.156;17.038;2023-08-30T06:58:25;0.70;;;0.70;;
52354;SDS011;38286;51.156;17.038;2023-08-30T07:00:51;2.25;;;0.82;;
52354;SDS011;38286;51.156;17.038;2023-08-30T07:03:18;0.73;;;0.73;;
52354;SDS011;38286;51.156;17.038;2023-08-30T07:05:44;1.58;;;1.23;;
52354;SDS011;38286;51.156;17.038;2023-08-30T07:08:10;1.85;;;1.25;;
52354;SDS011;38286;51.156;17.038;2023-08-30T07:10:36;2.88;;;1.10;;
52354;SDS011;38286;51.156;17.038;2023-08-30T07:13:02;1.00;;;0.90;;
52354;SDS011;38286;51.156;17.038;2023-08-30T07:15:29;0.70;;;0.70;;
52354;SDS011;38286;51.156;17.038;2023-08-30T07:17:55;0.90;;;0.90;;
52354;SDS011;38286;51.156;17.038;2023-08-30T07:20:21;0.65;;;0.65;;
52354;SDS011;38286;51.156;17.038;2023-08-30T07:22:47;0.70;;;0.70;;
52354;SDS011;38286;51.156;17.038;2023-08-30T07:25:13;1.90;;;0.70;;
52354;SDS011;38286;51.156;17.038;2023-08-30T07:27:39;0.70;;;0.70;;
52354;SDS011;38286;51.156;17.038;2023-08-30T07:30:05;0.60;;;0.60;;
52354;SDS011;38286;51.156;17.038;2023-08-30T07:32:32;0.75;;;0.75;;
52354;SDS011;38286;51.156;17.038;2023-08-30T07:34:58;1.20;;;0.93;;
52354;SDS011;38286;51.156;17.038;2023-08-30T07:37:25;0.82;;;0.82;;
52354;SDS011;38286;51.156;17.038;2023-08-30T07:39:51;1.05;;;0.95;;
52354;SDS011;38286;51.156;17.038;2023-08-30T07:42:19;0.90;;;0.90;;
52354;SDS011;38286;51.156;17.038;2023-08-30T07:44:44;1.65;;;0.77;;
52354;SDS011;38286;51.156;17.038;2023-08-30T07:47:11;2.28;;;0.95;;
52354;SDS011;38286;51.156;17.038;2023-08-30T07:49:36;0.60;;;0.60;;
52354;SDS011;38286;51.156;17.038;2023-08-30T07:52:03;0.52;;;0.52;;
52354;SDS011;38286;51.156;17.038;2023-08-30T07:54:29;0.63;;;0.60;;
52354;SDS011;38286;51.156;17.038;2023-08-30T07:56:56;1.33;;;0.40;;
52354;SDS011;38286;51.156;17.038;2023-08-30T07:59:22;0.50;;;0.50;;
52354;SDS011;38286;51.156;17.038;2023-08-30T08:01:48;0.70;;;0.70;;
52354;SDS011;38286;51.156;17.038;2023-08-30T08:04:14;0.90;;;0.60;;
52354;SDS011;38286;51.156;17.038;2023-08-30T08:06:40;0.50;;;0.50;;
52354;SDS011;38286;51.156;17.038;2023-08-30T08:09:06;0.50;;;0.50;;
52354;SDS011;38286;51.156;17.038;2023-08-30T08:11:33;0.80;;;0.60;;
52354;SDS011;38286;51.156;17.038;2023-08-30T08:13:59;0.57;;;0.57;;
52354;SDS011;38286;51.156;17.038;2023-08-30T08:16:25;0.47;;;0.47;;
52354;SDS011;38286;51.156;17.038;2023-08-30T08:18:51;0.52;;;0.52;;
52354;SDS011;38286;51.156;17.038;2023-08-30T08:21:17;0.70;;;0.50;;
52354;SDS011;38286;51.156;17.038;2023-08-30T08:23:43;0.50;;;0.50;;
52354;SDS011;38286;51.156;17.038;2023-08-30T08:26:09;1.10;;;0.65;;
52354;SDS011;38286;51.156;17.038;2023-08-30T08:28:35;1.38;;;0.50;;
52354;SDS011;38286;51.156;17.038;2023-08-30T08:31:01;0.50;;;0.50;;
52354;SDS011;38286;51.156;17.038;2023-08-30T08:33:28;0.70;;;0.70;;
52354;SDS011;38286;51.156;17.038;2023-08-30T08:35:54;0.85;;;0.70;;
52354;SDS011;38286;51.156;17.038;2023-08-30T08:38:21;1.00;;;1.00;;
52354;SDS011;38286;51.156;17.038;2023-08-30T08:40:47;0.90;;;0.90;;
52354;SDS011;38286;51.156;17.038;2023-08-30T08:43:15;3.60;;;1.45;;
52354;SDS011;38286;51.156;17.038;2023-08-30T08:45:44;1.00;;;1.00;;
52354;SDS011;38286;51.156;17.038;2023-08-30T08:48:10;1.15;;;1.05;;
52354;SDS011;38286;51.156;17.038;2023-08-30T08:50:37;1.50;;;1.40;;
52354;SDS011;38286;51.156;17.038;2023-08-30T08:53:03;1.48;;;1.38;;
52354;SDS011;38286;51.156;17.038;2023-08-30T08:55:29;2.08;;;1.45;;
52354;SDS011;38286;51.156;17.038;2023-08-30T08:57:57;1.63;;;1.52;;
52354;SDS011;38286;51.156;17.038;2023-08-30T09:00:24;1.45;;;1.35;;
52354;SDS011;38286;51.156;17.038;2023-08-30T09:02:50;1.20;;;1.20;;
52354;SDS011;38286;51.156;17.038;2023-08-30T09:05:20;0.90;;;0.90;;
52354;SDS011;38286;51.156;17.038;2023-08-30T09:07:46;1.25;;;1.17;;
52354;SDS011;38286;51.156;17.038;2023-08-30T09:10:12;1.25;;;1.00;;
52354;SDS011;38286;51.156;17.038;2023-08-30T09:12:38;1.85;;;1.30;;
52354;SDS011;38286;51.156;17.038;2023-08-30T09:15:04;1.48;;;1.27;;
52354;SDS011;38286;51.156;17.038;2023-08-30T09:17:37;1.35;;;0.82;;
52354;SDS011;38286;51.156;17.038;2023-08-30T09:20:10;1.00;;;1.00;;
52354;SDS011;38286;51.156;17.038;2023-08-30T09:22:41;0.98;;;0.98;;
52354;SDS011;38286;51.156;17.038;2023-08-30T09:25:10;1.92;;;1.17;;
52354;SDS011;38286;51.156;17.038;2023-08-30T09:27:48;1.00;;;1.00;;
52354;SDS011;38286;51.156;17.038;2023-08-30T09:30:14;0.80;;;0.80;;
52354;SDS011;38286;51.156;17.038;2023-08-30T09:32:40;0.80;;;0.80;;
52354;SDS011;38286;51.156;17.038;2023-08-30T09:35:10;0.90;;;0.90;;
52354;SDS011;38286;51.156;17.038;2023-08-30T09:37:36;1.75;;;1.10;;
52354;SDS011;38286;51.156;17.038;2023-08-30T09:40:03;1.30;;;1.20;;
52354;SDS011;38286;51.156;17.038;2023-08-30T09:42:30;1.67;;;0.93;;
52354;SDS011;38286;51.156;17.038;2023-08-30T09:44:57;1.45;;;0.88;;
52354;SDS011;38286;51.156;17.038;2023-08-30T09:47:24;1.35;;;0.90;;
52354;SDS011;38286;51.156;17.038;2023-08-30T09:49:51;0.98;;;0.98;;
52354;SDS011;38286;51.156;17.038;2023-08-30T09:52:20;1.67;;;1.10;;
52354;SDS011;38286;51.156;17.038;2023-08-30T09:54:49;1.25;;;0.80;;
52354;SDS011;38286;51.156;17.038;2023-08-30T09:57:15;1.42;;;1.00;;
52354;SDS011;38286;51.156;17.038;2023-08-30T09:59:42;0.80;;;0.77;;
52354;SDS011;38286;51.156;17.038;2023-08-30T10:02:08;1.85;;;0.90;;
52354;SDS011;38286;51.156;17.038;2023-08-30T10:04:35;1.15;;;0.60;;
52354;SDS011;38286;51.156;17.038;2023-08-30T10:07:05;1.17;;;0.77;;
52354;SDS011;38286;51.156;17.038;2023-08-30T10:09:32;0.82;;;0.80;;
52354;SDS011;38286;51.156;17.038;2023-08-30T10:11:58;1.20;;;0.75;;
52354;SDS011;38286;51.156;17.038;2023-08-30T10:14:27;1.88;;;0.90;;
52354;SDS011;38286;51.156;17.038;2023-08-30T10:16:56;1.42;;;0.95;;
52354;SDS011;38286;51.156;17.038;2023-08-30T10:19:29;0.88;;;0.85;;
52354;SDS011;38286;51.156;17.038;2023-08-30T10:24:25;1.10;;;1.00;;
52354;SDS011;38286;51.156;17.038;2023-08-30T10:26:52;1.23;;;1.13;;
52354;SDS011;38286;51.156;17.038;2023-08-30T10:29:19;1.00;;;1.00;;
52354;SDS011;38286;51.156;17.038;2023-08-30T10:31:46;0.80;;;0.80;;
52354;SDS011;38286;51.156;17.038;2023-08-30T10:34:15;2.13;;;1.08;;
52354;SDS011;38286;51.156;17.038;2023-08-30T10:36:42;1.30;;;0.90;;
52354;SDS011;38286;51.156;17.038;2023-08-30T10:39:13;1.05;;;0.90;;
52354;SDS011;38286;51.156;17.038;2023-08-30T10:41:55;2.72;;;1.20;;
52354;SDS011;38286;51.156;17.038;2023-08-30T10:44:22;1.00;;;0.90;;
52354;SDS011;38286;51.156;17.038;2023-08-30T10:46:52;1.30;;;1.20;;
52354;SDS011;38286;51.156;17.038;2023-08-30T10:49:19;2.17;;;1.83;;
52354;SDS011;38286;51.156;17.038;2023-08-30T10:51:53;3.50;;;1.95;;
52354;SDS011;38286;51.156;17.038;2023-08-30T10:56:56;2.28;;;2.03;;
52354;SDS011;38286;51.156;17.038;2023-08-30T10:59:25;4.13;;;2.30;;
52354;SDS011;38286;51.156;17.038;2023-08-30T11:01:51;3.00;;;2.60;;
52354;SDS011;38286;51.156;17.038;2023-08-30T11:04:18;3.13;;;2.53;;
52354;SDS011;38286;51.156;17.038;2023-08-30T11:06:49;4.72;;;2.50;;
52354;SDS011;38286;51.156;17.038;2023-08-30T11:09:20;2.50;;;2.30;;
52354;SDS011;38286;51.156;17.038;2023-08-30T11:11:47;3.38;;;3.03;;
52354;SDS011;38286;51.156;17.038;2023-08-30T11:14:14;3.45;;;2.90;;
52354;SDS011;38286;51.156;17.038;2023-08-30T11:16:41;4.07;;;3.63;;
52354;SDS011;38286;51.156;17.038;2023-08-30T11:19:08;4.28;;;3.28;;
52354;SDS011;38286;51.156;17.038;2023-08-30T11:21:34;3.03;;;2.63;;
52354;SDS011;38286;51.156;17.038;2023-08-30T11:24:06;4.55;;;3.03;;
52354;SDS011;38286;51.156;17.038;2023-08-30T11:26:32;4.57;;;2.97;;
52354;SDS011;38286;51.156;17.038;2023-08-30T11:29:06;3.53;;;2.80;;
52354;SDS011;38286;51.156;17.038;2023-08-30T11:31:35;3.22;;;2.92;;
52354;SDS011;38286;51.156;17.038;2023-08-30T11:34:01;3.83;;;2.58;;
52354;SDS011;38286;51.156;17.038;2023-08-30T11:36:28;2.25;;;2.03;;
52354;SDS011;38286;51.156;17.038;2023-08-30T11:38:58;1.70;;;1.60;;
52354;SDS011;38286;51.156;17.038;2023-08-30T11:41:24;1.58;;;1.48;;
52354;SDS011;38286;51.156;17.038;2023-08-30T11:43:51;2.50;;;2.30;;
52354;SDS011;38286;51.156;17.038;2023-08-30T11:46:18;3.03;;;2.72;;
52354;SDS011;38286;51.156;17.038;2023-08-30T11:48:45;2.75;;;2.50;;
52354;SDS011;38286;51.156;17.038;2023-08-30T11:51:12;2.85;;;2.65;;
52354;SDS011;38286;51.156;17.038;2023-08-30T11:53:39;3.28;;;2.20;;
52354;SDS011;38286;51.156;17.038;2023-08-30T11:56:05;2.53;;;2.30;;
52354;SDS011;38286;51.156;17.038;2023-08-30T11:58:36;2.90;;;2.60;;
52354;SDS011;38286;51.156;17.038;2023-08-30T12:01:06;3.22;;;2.63;;
52354;SDS011;38286;51.156;17.038;2023-08-30T12:03:33;2.10;;;1.90;;
52354;SDS011;38286;51.156;17.038;2023-08-30T12:05:59;1.60;;;1.50;;
52354;SDS011;38286;51.156;17.038;2023-08-30T12:08:26;1.67;;;1.58;;
52354;SDS011;38286;51.156;17.038;2023-08-30T12:10:53;1.42;;;0.90;;
52354;SDS011;38286;51.156;17.038;2023-08-30T12:13:27;0.82;;;0.82;;
52354;SDS011;38286;51.156;17.038;2023-08-30T12:15:54;1.90;;;0.88;;
52354;SDS011;38286;51.156;17.038;2023-08-30T12:18:25;1.80;;;0.80;;
52354;SDS011;38286;51.156;17.038;2023-08-30T12:20:58;1.33;;;1.00;;
52354;SDS011;38286;51.156;17.038;2023-08-30T12:23:28;0.70;;;0.70;;
52354;SDS011;38286;51.156;17.038;2023-08-30T12:28:32;0.98;;;0.88;;
52354;SDS011;38286;51.156;17.038;2023-08-30T12:30:59;0.80;;;0.80;;
52354;SDS011;38286;51.156;17.038;2023-08-30T12:33:25;1.20;;;0.85;;
52354;SDS011;38286;51.156;17.038;2023-08-30T12:35:55;1.27;;;1.17;;
52354;SDS011;38286;51.156;17.038;2023-08-30T12:38:21;1.70;;;1.60;;
52354;SDS011;38286;51.156;17.038;2023-08-30T12:40:49;1.63;;;1.52;;
52354;SDS011;38286;51.156;17.038;2023-08-30T12:43:19;1.35;;;1.25;;
52354;SDS011;38286;51.156;17.038;2023-08-30T12:45:48;1.08;;;1.00;;
52354;SDS011;38286;51.156;17.038;2023-08-30T12:48:16;1.00;;;0.80;;
52354;SDS011;38286;51.156;17.038;2023-08-30T12:50:46;0.65;;;0.65;;
52354;SDS011;38286;51.156;17.038;2023-08-30T12:53:13;0.80;;;0.80;;
52354;SDS011;38286;51.156;17.038;2023-08-30T12:55:41;0.70;;;0.70;;
52354;SDS011;38286;51.156;17.038;2023-08-30T12:58:08;0.60;;;0.60;;
52354;SDS011;38286;51.156;17.038;2023-08-30T13:00:34;0.80;;;0.80;;
52354;SDS011;38286;51.156;17.038;2023-08-30T13:03:01;0.80;;;0.70;;
52354;SDS011;38286;51.156;17.038;2023-08-30T13:05:28;0.82;;;0.70;;
52354;SDS011;38286;51.156;17.038;2023-08-30T13:07:56;0.60;;;0.60;;
52354;SDS011;38286;51.156;17.038;2023-08-30T13:10:22;1.17;;;0.80;;
52354;SDS011;38286;51.156;17.038;2023-08-30T13:12:48;0.60;;;0.60;;
52354;SDS011;38286;51.156;17.038;2023-08-30T13:15:13;0.55;;;0.55;;
52354;SDS011;38286;51.156;17.038;2023-08-30T13:17:40;0.50;;;0.50;;
52354;SDS011;38286;51.156;17.038;2023-08-30T13:20:06;0.50;;;0.50;;
52354;SDS011;38286;51.156;17.038;2023-08-30T13:22:32;0.50;;;0.50;;
52354;SDS011;38286;51.156;17.038;2023-08-30T13:24:58;0.52;;;0.52;;
52354;SDS011;38286;51.156;17.038;2023-08-30T13:27:24;2.15;;;0.75;;
52354;SDS011;38286;51.156;17.038;2023-08-30T13:29:50;1.38;;;0.90;;
52354;SDS011;38286;51.156;17.038;2023-08-30T13:32:16;0.82;;;0.80;;
52354;SDS011;38286;51.156;17.038;2023-08-30T13:34:42;0.60;;;0.57;;
52354;SDS011;38286;51.156;17.038;2023-08-30T13:37:11;0.75;;;0.60;;
52354;SDS011;38286;51.156;17.038;2023-08-30T13:39:38;0.50;;;0.50;;
52354;SDS011;38286;51.156;17.038;2023-08-30T13:42:07;0.90;;;0.60;;
52354;SDS011;38286;51.156;17.038;2023-08-30T13:44:33;0.50;;;0.50;;
52354;SDS011;38286;51.156;17.038;2023-08-30T13:47:06;1.83;;;0.60;;
52354;SDS011;38286;51.156;17.038;2023-08-30T13:49:32;0.50;;;0.50;;
52354;SDS011;38286;51.156;17.038;2023-08-30T13:51:58;0.60;;;0.60;;
52354;SDS011;38286;51.156;17.038;2023-08-30T13:54:24;0.55;;;0.55;;
52354;SDS011;38286;51.156;17.038;2023-08-30T13:56:51;0.70;;;0.50;;
52354;SDS011;38286;51.156;17.038;2023-08-30T13:59:17;0.57;;;0.50;;
52354;SDS011;38286;51.156;17.038;2023-08-30T14:01:43;1.55;;;0.77;;
52354;SDS011;38286;51.156;17.038;2023-08-30T14:04:09;0.50;;;0.50;;
52354;SDS011;38286;51.156;17.038;2023-08-30T14:06:35;0.70;;;0.70;;
52354;SDS011;38286;51.156;17.038;2023-08-30T14:09:01;1.27;;;0.75;;
52354;SDS011;38286;51.156;17.038;2023-08-30T14:11:30;0.90;;;0.60;;
52354;SDS011;38286;51.156;17.038;2023-08-30T14:13:56;0.60;;;0.60;;
52354;SDS011;38286;51.156;17.038;2023-08-30T14:16:22;0.63;;;0.55;;
52354;SDS011;38286;51.156;17.038;2023-08-30T14:18:47;0.50;;;0.50;;
52354;SDS011;38286;51.156;17.038;2023-08-30T14:21:14;0.80;;;0.65;;
52354;SDS011;38286;51.156;17.038;2023-08-30T14:23:39;1.70;;;0.70;;
52354;SDS011;38286;51.156;17.038;2023-08-30T14:26:06;0.88;;;0.75;;
52354;SDS011;38286;51.156;17.038;2023-08-30T14:28:35;0.93;;;0.80;;
52354;SDS011;38286;51.156;17.038;2023-08-30T14:31:02;0.73;;;0.60;;
52354;SDS011;38286;51.156;17.038;2023-08-30T14:33:30;0.85;;;0.82;;
52354;SDS011;38286;51.156;17.038;2023-08-30T14:35:56;0.60;;;0.60;;
52354;SDS011;38286;51.156;17.038;2023-08-30T14:38:22;2.20;;;1.70;;
52354;SDS011;38286;51.156;17.038;2023-08-30T14:40:55;3.58;;;2.60;;
52354;SDS011;38286;51.156;17.038;2023-08-30T14:43:22;1.35;;;0.70;;
52354;SDS011;38286;51.156;17.038;2023-08-30T14:45:48;0.70;;;0.70;;
52354;SDS011;38286;51.156;17.038;2023-08-30T14:48:14;1.20;;;0.80;;